Latest Weather Observations for Rolleston Airport

IDQ60801

Issued at 11:12 pm EST Saturday 22 September 2018 (issued every 10 minutes, with the page automatically refreshed every 10 minutes)

About weather observations | Map of weather stations | Latest weather observations for QLD | Other Formats
Station Details ID: 035129 Name: ROLLESTON AIRPORT Lat: -24.46 Lon: 148.63 Height: 219.45 m
Data from the previous 72 hours. | See also: Recent months at Rolleston Airport
Date/Time
EST
Temp
°C
App
Temp
°C
Dew
Point
°C
Rel
Hum
%
Delta-T
°C
Wind Press
QNH
hPa
Press
MSL
hPa
Rain since
9am
mm
Dir  Spd
km/h
Gust
km/h
Spd
kts
Gust
kts
22/11:00pm 17.0 13.5 3.7 41 6.2 ESE 11 19 6 10 1023.7 1023.1 0.0
22/10:30pm 16.3 13.2 3.4 42 6.0 SSE 9 9 5 5 1023.4 1022.8 0.0
22/10:00pm 16.7 13.5 3.1 40 6.3 SE 9 9 5 5 1023.6 1023.0 0.0
22/09:30pm 16.1 13.5 4.2 45 5.6 SE 7 9 4 5 1023.8 1023.2 0.0
22/09:00pm 17.4 15.1 3.0 38 6.7 SSE 4 6 2 3 1023.7 1023.1 0.0
22/08:30pm 18.5 16.7 3.2 36 7.2 S 2 6 1 3 1023.5 1022.9 0.0
22/08:00pm 18.5 16.5 2.4 34 7.4 SE 2 4 1 2 1023.4 1022.8 0.0
22/07:30pm 21.0 18.6 2.3 29 8.8 ENE 4 6 2 3 1023.0 1022.3 0.0
22/07:00pm 22.1 19.3 2.2 27 9.4 ENE 6 6 3 3 1022.6 1021.9 0.0
22/06:30pm 22.4 19.4 2.0 26 9.7 E 7 7 4 4 1022.3 1021.6 0.0
22/06:00pm 24.0 21.0 2.2 24 10.4 E 7 11 4 6 1022.2 1021.5 0.0
22/05:30pm 25.6 21.1 2.3 22 11.4 E 15 22 8 12 1021.9 1021.2 0.0
22/05:00pm 26.0 22.0 2.7 22 11.4 ESE 13 19 7 10 1021.7 1021.0 0.0
22/04:30pm 25.8 21.5 3.1 23 11.2 E 15 26 8 14 1021.5 1020.8 0.0
22/04:00pm 26.0 21.7 3.3 23 11.3 SE 15 24 8 13 1021.2 1020.6 0.0
22/03:30pm 25.9 21.9 2.6 22 11.4 ESE 13 19 7 10 1021.7 1021.0 0.0
22/03:00pm 25.8 21.4 2.5 22 11.4 E 15 22 8 12 1022.0 1021.3 0.0
22/02:30pm 26.1 22.6 3.4 23 11.3 ESE 11 22 6 12 1022.4 1021.7 0.0
22/02:00pm 26.3 23.2 3.5 23 11.4 E 9 22 5 12 1022.8 1022.1 0.0
22/01:30pm 25.6 21.0 3.6 24 11.0 ESE 17 28 9 15 1023.3 1022.7 0.0
22/01:00pm 26.2 22.1 4.6 25 11.0 E 15 24 8 13 1023.6 1023.0 0.0
22/12:30pm 25.1 21.5 4.8 27 10.3 SE 13 20 7 11 1024.3 1023.7 0.0
22/12:00pm 23.6 19.8 6.0 32 9.0 ESE 15 32 8 17 1025.1 1024.5 0.0
22/11:30am 22.8 19.1 6.1 34 8.6 SE 15 26 8 14 1025.8 1025.2 0.0
22/11:00am 23.1 19.3 6.0 33 8.7 E 15 28 8 15 1026.3 1025.6 0.0
22/10:30am 21.5 18.5 6.2 37 7.8 SE 11 22 6 12 1027.0 1026.3 0.0
22/10:00am 21.3 17.7 6.8 39 7.4 E 15 26 8 14 1027.4 1026.8 0.0
22/09:30am 20.6 17.5 7.2 42 6.9 E 13 20 7 11 1027.8 1027.2 0.0
22/09:00am 20.3 17.2 7.3 43 6.7 E 13 20 7 11 1027.8 1027.2 0.0
22/08:30am 18.4 16.3 8.4 52 5.2 SE 9 15 5 8 1027.8 1027.2 0.0
22/08:00am 16.7 14.8 7.6 55 4.6 SSE 7 13 4 7 1027.6 1027.0 0.0
22/07:30am 14.6 12.6 7.2 61 3.7 SSE 7 9 4 5 1027.3 1026.7 0.0
22/07:00am 13.2 11.4 7.2 67 2.9 SSE 6 6 3 3 1026.9 1026.2 0.0
22/06:30am 10.7 8.8 6.5 75 2.0 SSE 6 6 3 3 1026.6 1025.9 0.0
22/06:00am 9.6 7.6 4.4 70 2.3 SSE 4 6 2 3 1026.3 1025.6 0.0
22/05:30am 9.4 6.9 3.8 68 2.5 SSE 6 7 3 4 1025.7 1025.1 0.0
22/05:00am 9.8 7.7 3.8 66 2.6 S 4 6 2 3 1025.5 1024.9 0.0
22/04:30am 10.3 7.7 3.3 62 3.1 SSE 6 6 3 3 1024.9 1024.3 0.0
22/04:00am 10.8 8.3 3.8 62 3.1 SE 6 7 3 4 1024.6 1024.0 0.0
22/03:30am 12.8 11.1 5.7 62 3.4 SE 4 9 2 5 1024.4 1023.8 0.0
22/03:00am 12.1 9.6 3.6 56 3.8 SSE 6 6 3 3 1024.6 1024.0 0.0
22/02:30am 12.1 9.9 3.1 54 4.0 SSE 4 6 2 3 1024.7 1024.1 0.0
22/02:00am 12.1 10.2 3.1 54 4.0 SSE 2 6 1 3 1024.8 1024.2 0.0
22/01:30am 12.4 10.9 2.8 52 4.3 CALM 0 0 0 0 1024.8 1024.2 0.0
22/01:00am 12.5 10.4 1.8 48 4.6 SSW 2 6 1 3 1024.9 1024.3 0.0
22/12:30am 12.4 9.7 0.5 44 5.0 SW 4 4 2 2 1024.8 1024.2 0.0
22/12:00am 14.7 12.4 2.6 44 5.4 E 4 6 2 3 1024.6 1024.0 0.0
 
Date/Time
EST
Temp
°C
App
Temp
°C
Dew
Point
°C
Rel
Hum
%
Delta-T
°C
Wind Press
QNH
hPa
Press
MSL
hPa
Rain since
9am
mm
Dir  Spd
km/h
Gust
km/h
Spd
kts
Gust
kts
21/11:30pm 14.8 11.7 1.3 40 5.9 E 7 9 4 5 1024.4 1023.8 0.0
21/11:00pm 15.8 12.0 -0.4 33 6.9 E 9 13 5 7 1024.3 1023.7 0.0
21/10:30pm 17.0 12.1 -0.7 30 7.6 ESE 15 32 8 17 1024.2 1023.6 0.0
21/10:00pm 13.9 10.0 -1.3 35 6.2 SE 9 11 5 6 1023.8 1023.2 0.0
21/09:30pm 14.7 11.2 -1.4 33 6.7 SSE 7 7 4 4 1023.9 1023.3 0.0
21/09:00pm 14.8 11.4 -2.1 31 6.9 S 6 7 3 4 1023.7 1023.1 0.0
21/08:30pm 16.2 12.7 -2.8 27 7.7 S 6 7 3 4 1023.6 1023.0 0.0
21/08:00pm 19.2 15.2 -2.4 23 9.1 ESE 9 9 5 5 1023.3 1022.7 0.0
21/07:30pm 20.8 16.4 -2.3 21 9.9 ESE 11 13 6 7 1022.9 1022.2 0.0
21/07:00pm 20.0 16.4 -2.3 22 9.5 ESE 7 9 4 5 1022.5 1021.8 0.0
21/06:30pm 20.9 17.2 -2.9 20 10.1 ESE 7 9 4 5 1022.0 1021.3 0.0
21/06:00pm 22.2 18.0 -4.0 17 11.0 ESE 9 13 5 7 1021.5 1020.8 0.0
21/05:30pm 24.4 19.1 -3.9 15 12.2 SE 15 20 8 11 1021.1 1020.5 0.0
21/05:00pm 25.1 19.7 -4.2 14 12.6 SE 15 19 8 10 1020.9 1020.3 0.0
21/04:30pm 25.5 19.7 -4.9 13 13.0 ESE 17 24 9 13 1020.7 1020.1 0.0
21/04:00pm 25.9 20.3 -6.8 11 13.5 SE 15 24 8 13 1020.6 1020.0 0.0
21/03:30pm 25.7 19.9 -8.2 10 13.6 SSE 15 30 8 16 1020.3 1019.7 0.0
21/03:00pm 25.0 18.4 -8.7 10 13.3 SE 19 32 10 17 1020.3 1019.7 0.0
21/02:30pm 25.2 18.7 -8.5 10 13.4 ESE 19 32 10 17 1020.7 1020.1 0.0
21/02:00pm 25.2 18.7 -8.5 10 13.4 SE 19 32 10 17 1020.9 1020.3 0.0
21/01:30pm 24.9 18.6 -10.1 9 13.5 SSE 17 28 9 15 1021.5 1020.8 0.0
21/01:00pm 24.6 17.8 -9.0 10 13.1 SSE 20 37 11 20 1022.0 1021.3 0.0
21/12:30pm 23.8 18.6 -10.9 9 13.0 SSE 11 26 6 14 1022.2 1021.5 0.0
21/12:00pm 23.3 16.6 -10.0 10 12.6 SE 19 28 10 15 1022.8 1022.1 0.0
21/11:30am 22.6 15.6 -11.8 9 12.5 SSE 20 30 11 16 1023.5 1022.9 0.0
21/11:00am 22.0 14.3 -11.0 10 12.0 SE 24 32 13 17 1023.8 1023.2 0.0
21/10:30am 21.9 14.4 -8.7 12 11.7 SE 24 39 13 21 1024.2 1023.6 0.0
21/10:00am 20.8 12.1 -9.6 12 11.2 SSE 30 43 16 23 1024.6 1024.0 0.0
21/09:30am 20.5 13.9 -7.0 15 10.7 SSE 20 35 11 19 1024.7 1024.1 0.0
21/09:00am 19.5 12.2 -6.2 17 10.0 SSE 24 35 13 19 1024.9 1024.3 0.0
21/08:30am 17.9 12.2 -4.1 22 8.9 SSE 17 24 9 13 1024.8 1024.2 0.0
21/08:00am 16.3 11.0 -3.7 25 8.0 SSE 15 24 8 13 1024.8 1024.2 0.0
21/07:30am 12.8 8.6 -3.9 31 6.4 SSE 9 11 5 6 1024.5 1023.9 0.0
21/07:00am 10.5 6.6 -4.3 35 5.4 SSE 7 9 4 5 1024.2 1023.6 0.0
21/06:30am 8.5 4.8 -4.3 40 4.6 SE 6 9 3 5 1023.7 1023.1 0.0
21/06:00am 8.2 3.5 -4.6 40 4.5 SSE 11 13 6 7 1023.4 1022.8 0.0
21/05:30am 8.2 3.5 -4.6 40 4.6 SSE 11 11 6 6 1022.9 1022.2 0.0
21/05:00am 7.8 3.6 -4.0 43 4.2 SE 9 11 5 6 1022.6 1021.9 0.0
21/04:30am 8.0 3.8 -4.1 42 4.4 SE 9 9 5 5 1022.3 1021.6 0.0
21/04:00am 8.2 4.5 -4.2 41 4.5 SE 6 9 3 5 1022.0 1021.3 0.0
21/03:30am 8.4 4.4 -5.4 37 4.8 SSE 7 9 4 5 1021.5 1020.8 0.0
21/03:00am 9.7 5.7 -5.4 34 5.4 SE 7 9 4 5 1021.2 1020.6 0.0
21/02:30am 9.7 5.6 -6.2 32 5.6 SSE 7 9 4 5 1021.1 1020.5 0.0
21/02:00am 11.2 7.2 -5.3 31 6.0 SSE 7 11 4 6 1021.1 1020.5 0.0
21/01:30am 13.7 9.4 -4.9 27 7.0 S 9 15 5 8 1021.2 1020.6 0.0
21/01:00am 14.5 9.7 -5.8 24 7.6 SSE 11 19 6 10 1021.3 1020.7 0.0
21/12:30am 15.9 10.7 -6.4 21 8.4 SSE 13 20 7 11 1021.2 1020.6 0.0
21/12:00am 17.0 11.4 -6.8 19 8.9 S 15 22 8 12 1021.1 1020.5 0.0
 
Date/Time
EST
Temp
°C
App
Temp
°C
Dew
Point
°C
Rel
Hum
%
Delta-T
°C
Wind Press
QNH
hPa
Press
MSL
hPa
Rain since
9am
mm
Dir  Spd
km/h
Gust
km/h
Spd
kts
Gust
kts
20/11:30pm 17.2 10.8 -6.6 19 9.0 S 19 32 10 17 1021.0 1020.4 0.0
20/11:00pm 18.0 11.4 -6.6 18 9.4 S 20 30 11 16 1020.7 1020.1 0.0
20/10:30pm 18.1 12.1 -6.6 18 9.5 S 17 22 9 12 1020.7 1020.1 0.0
20/10:00pm 18.2 12.1 -7.2 17 9.6 S 17 24 9 13 1020.5 1019.9 0.0
20/09:30pm 19.1 12.7 -7.3 16 10.1 S 19 32 10 17 1020.2 1019.6 0.0
20/09:00pm 19.9 13.7 -8.4 14 10.6 SSE 17 24 9 13 1020.0 1019.4 0.0
20/08:30pm 20.8 14.2 -8.6 13 11.1 SSE 19 24 10 13 1019.4 1018.8 0.0
20/08:00pm 21.8 15.0 -8.8 12 11.7 S 20 32 11 17 1018.8 1018.1 0.0
20/07:30pm 22.6 15.9 -8.2 12 12.0 SSE 20 32 11 17 1018.3 1017.6 0.0
20/07:00pm 23.5 16.8 -8.6 11 12.5 SSE 20 30 11 16 1017.6 1016.9 0.0
20/06:30pm 24.5 18.2 -10.4 9 13.3 S 17 26 9 14 1016.8 1016.1 0.0
20/06:00pm 25.9 19.2 -10.8 8 14.1 S 19 33 10 18 1015.9 1015.3 0.0
20/05:30pm 27.3 20.5 -9.8 8 14.7 SSE 20 32 11 17 1015.3 1014.7 0.0
20/05:00pm 28.3 21.8 -7.6 9 14.9 SSE 19 28 10 15 1014.8 1014.1 0.0
20/04:30pm 29.3 23.9 -4.2 11 14.9 S 15 24 8 13 1014.4 1013.7 0.0
20/04:00pm 29.3 24.6 -1.9 13 14.5 SSW 13 22 7 12 1014.3 1013.6 0.0
20/03:30pm 29.1 24.3 -0.1 15 14.0 S 15 24 8 13 1014.1 1013.4 0.0
20/03:00pm 30.0 25.6 0.6 15 14.3 SSW 13 24 7 13 1014.2 1013.5 0.0
20/02:30pm 29.4 26.2 1.0 16 13.9 SSW 7 15 4 8 1014.4 1013.7 0.0
20/02:00pm 29.2 24.5 0.8 16 13.8 SSW 15 24 8 13 1014.8 1014.1 0.0
20/01:30pm 28.3 24.0 0.9 17 13.3 SSE 13 19 7 10 1015.1 1014.4 0.0
20/01:00pm 27.9 24.8 1.4 18 12.9 S 7 13 4 7 1015.8 1015.2 0.0
20/12:30pm 27.2 24.2 2.3 20 12.3 SW 7 17 4 9 1016.3 1015.7 0.0
20/12:00pm 26.9 23.8 1.3 19 12.3 S 7 20 4 11 1017.0 1016.3 0.0
20/11:30am 25.7 21.8 1.1 20 11.7 SSE 11 20 6 11 1017.5 1016.8 0.0
20/11:00am 25.9 20.8 0.5 19 12.0 SSE 17 28 9 15 1017.9 1017.2 0.0
20/10:30am 24.6 18.9 0.8 21 11.2 SSE 20 30 11 16 1018.2 1017.5 0.0
20/10:00am 23.6 18.1 0.7 22 10.7 SSE 19 28 10 15 1018.2 1017.5 0.0
20/09:30am 23.6 17.9 0.7 22 10.7 SSE 20 32 11 17 1018.2 1017.5 0.0
20/09:00am 22.6 16.5 0.4 23 10.2 SSE 22 35 12 19 1018.2 1017.5 0.0
20/08:30am 21.6 15.6 0.8 25 9.6 S 22 33 12 18 1018.1 1017.4 0.0
20/08:00am 21.0 14.8 2.3 29 8.8 SSE 24 33 13 18 1017.9 1017.2 0.0
20/07:30am 20.0 16.2 6.0 40 7.0 SSE 15 20 8 11 1017.7 1017.0 0.0
20/07:00am 18.7 16.1 6.2 44 6.2 SSE 9 13 5 7 1017.4 1016.7 0.0
20/06:30am 16.7 14.5 6.2 50 5.2 SSE 7 9 4 5 1017.0 1016.3 0.0
20/06:00am 18.6 16.7 4.8 40 6.7 SSW 4 6 2 3 1016.4 1015.8 0.0
20/05:30am 18.6 16.6 6.1 44 6.2 SW 6 9 3 5 1016.1 1015.5 0.0
20/05:00am 18.3 17.3 7.4 49 5.6 WSW 2 6 1 3 1015.8 1015.2 0.0
20/04:30am 18.6 16.4 7.7 49 5.6 NNW 9 15 5 8 1015.6 1015.0 0.0
20/04:00am 18.7 16.2 8.1 50 5.5 NW 11 19 6 10 1015.5 1014.9 0.0
20/03:30am 18.3 17.3 8.8 54 5.0 W 4 7 2 4 1015.1 1014.4 0.0
20/03:00am 18.5 16.9 8.7 53 5.1 SW 7 11 4 6 1015.0 1014.3 0.0
20/02:30am 18.7 16.8 7.5 48 5.7 SW 7 9 4 5 1014.9 1014.2 0.0
20/02:00am 19.0 16.4 7.8 48 5.8 NNW 11 19 6 10 1014.2 1013.5 0.0
20/01:30am 19.4 16.9 8.4 49 5.8 NNW 11 17 6 9 1014.3 1013.6 0.0
20/01:00am 20.0 17.3 9.0 49 5.9 NNW 13 20 7 11 1014.5 1013.8 0.0
20/12:30am 20.4 18.3 9.9 51 5.7 NNW 11 17 6 9 1014.7 1014.0 0.0
20/12:00am 20.0 18.0 10.1 53 5.4 NNW 11 17 6 9 1014.8 1014.1 0.0
 
Date/Time
EST
Temp
°C
App
Temp
°C
Dew
Point
°C
Rel
Hum
%
Delta-T
°C
Wind Press
QNH
hPa
Press
MSL
hPa
Rain since
9am
mm
Dir  Spd
km/h
Gust
km/h
Spd
kts
Gust
kts
19/11:30pm 19.5 17.6 9.1 51 5.5 NNW 9 13 5 7 1014.9 1014.2 0.0

Other Formats:

Comma delimited format used in spreadsheet applications
http://www.bom.gov.au/fwo/IDQ60801/IDQ60801.94396.axf

JavaScript Object Notation format (JSON) in row-major order
http://www.bom.gov.au/fwo/IDQ60801/IDQ60801.94396.json